createdAt,value
2023-01-21T00:00:52.986Z,13.93
2023-01-21T00:03:57.399Z,13.50
2023-01-21T00:07:00.387Z,13.90
2023-01-21T00:10:03.391Z,13.63
2023-01-21T00:13:06.453Z,13.00
2023-01-21T00:16:14.722Z,13.23
2023-01-21T00:19:19.949Z,12.47
2023-01-21T00:22:23.014Z,12.90
2023-01-21T00:25:26.185Z,12.17
2023-01-21T00:28:30.315Z,11.27
2023-01-21T00:31:33.466Z,10.90
2023-01-21T00:34:37.917Z,11.87
2023-01-21T00:37:40.929Z,12.20
2023-01-21T00:40:43.947Z,11.70
2023-01-21T00:43:46.895Z,11.90
2023-01-21T00:46:49.931Z,10.33
2023-01-21T00:49:54.381Z,11.27
2023-01-21T00:52:57.408Z,10.70
2023-01-21T00:56:01.342Z,10.80
2023-01-21T00:59:04.470Z,11.00
2023-01-21T01:02:07.599Z,11.60
2023-01-21T01:05:13.784Z,11.13
2023-01-21T01:08:16.750Z,10.87
2023-01-21T01:11:21.708Z,10.60
2023-01-21T01:14:25.328Z,11.43
2023-01-21T01:17:28.325Z,10.77
2023-01-21T01:20:32.716Z,10.83
2023-01-21T01:23:35.969Z,11.73
2023-01-21T01:26:41.850Z,10.40
2023-01-21T01:29:45.384Z,9.30
2023-01-21T01:32:48.421Z,10.07
2023-01-21T01:35:53.347Z,9.80
2023-01-21T01:38:56.563Z,10.40
2023-01-21T01:42:00.352Z,10.40
2023-01-21T01:45:07.228Z,10.87
2023-01-21T01:48:12.833Z,11.10
2023-01-21T01:51:20.962Z,11.50
2023-01-21T01:54:27.899Z,12.63
2023-01-21T01:57:35.433Z,13.23
2023-01-21T02:00:38.593Z,13.50
2023-01-21T02:03:50.797Z,13.47
2023-01-21T02:06:56.711Z,14.03
2023-01-21T02:10:00.083Z,14.17
2023-01-21T02:13:03.934Z,13.77
2023-01-21T02:16:43.219Z,14.00
2023-01-21T02:20:16.179Z,14.60
2023-01-21T02:23:31.828Z,14.83
2023-01-21T02:27:15.072Z,14.90
2023-01-21T02:30:51.663Z,14.30
2023-01-21T02:34:02.235Z,15.13
2023-01-21T02:37:13.464Z,15.37
2023-01-21T02:40:22.068Z,13.27
2023-01-21T02:43:30.767Z,14.03
2023-01-21T02:46:41.219Z,14.93
2023-01-21T02:49:49.999Z,14.03
2023-01-21T02:52:57.003Z,13.90
2023-01-21T02:56:06.139Z,14.07
2023-01-21T02:59:09.465Z,14.57
2023-01-21T03:02:20.455Z,14.13
2023-01-21T03:05:30.261Z,14.80
2023-01-21T03:08:41.469Z,14.23
2023-01-21T03:11:48.624Z,13.90
2023-01-21T03:15:18.561Z,15.30
2023-01-21T03:18:26.630Z,15.50
2023-01-21T03:21:33.857Z,13.90
2023-01-21T03:24:39.358Z,14.70
2023-01-21T03:27:45.694Z,13.57
2023-01-21T03:30:53.808Z,14.33
2023-01-21T03:34:00.477Z,14.67
2023-01-21T03:37:08.819Z,13.90
2023-01-21T03:40:21.844Z,14.17
2023-01-21T03:43:25.065Z,13.70
2023-01-21T03:46:38.015Z,14.03
2023-01-21T03:49:45.602Z,14.07
2023-01-21T03:52:50.349Z,13.23
2023-01-21T03:55:53.834Z,12.57
2023-01-21T03:58:56.847Z,12.57
2023-01-21T04:01:59.838Z,13.23
2023-01-21T04:05:02.894Z,13.00
2023-01-21T04:08:07.360Z,13.13
2023-01-21T04:11:10.670Z,11.90
2023-01-21T04:14:13.765Z,11.97
2023-01-21T04:17:16.748Z,11.70
2023-01-21T04:20:20.033Z,12.20
2023-01-21T04:23:24.458Z,11.97
2023-01-21T04:26:27.581Z,11.37
2023-01-21T04:29:30.711Z,10.67
2023-01-21T04:32:33.733Z,10.83
2023-01-21T04:35:36.827Z,11.27
2023-01-21T04:38:41.223Z,10.60
2023-01-21T04:41:44.240Z,9.53
2023-01-21T04:44:47.517Z,10.10
2023-01-21T04:47:50.601Z,9.43
2023-01-21T04:50:53.739Z,9.57
2023-01-21T04:53:58.148Z,10.13
2023-01-21T04:57:01.308Z,10.13
2023-01-21T05:00:06.587Z,10.53
2023-01-21T05:03:09.607Z,10.60
2023-01-21T05:06:12.627Z,10.07
2023-01-21T05:09:17.085Z,9.97
2023-01-21T05:12:20.169Z,10.07
2023-01-21T05:15:23.319Z,9.90
2023-01-21T05:18:26.345Z,10.20
2023-01-21T05:21:29.357Z,10.00
2023-01-21T05:24:33.731Z,9.63
2023-01-21T05:27:36.803Z,11.17
2023-01-21T05:30:41.348Z,10.40
2023-01-21T05:33:47.148Z,9.20
2023-01-21T05:36:50.200Z,9.67
2023-01-21T05:39:54.559Z,10.53
2023-01-21T05:42:57.634Z,10.70
2023-01-21T05:46:00.719Z,10.13
2023-01-21T05:49:03.838Z,10.60
2023-01-21T05:52:06.956Z,10.33
2023-01-21T05:55:11.607Z,9.80
2023-01-21T05:58:14.676Z,10.23
2023-01-21T06:01:17.707Z,10.50
2023-01-21T06:04:23.764Z,10.50
2023-01-21T06:07:26.979Z,10.90
2023-01-21T06:10:31.466Z,10.70
2023-01-21T06:13:34.487Z,10.97
2023-01-21T06:16:37.569Z,10.40
2023-01-21T06:19:40.609Z,12.27
2023-01-21T06:22:43.654Z,12.43
2023-01-21T06:25:48.027Z,12.83
2023-01-21T06:28:51.076Z,12.50
2023-01-21T06:31:54.256Z,13.50
2023-01-21T06:34:57.450Z,13.67
2023-01-21T06:38:00.479Z,13.73
2023-01-21T06:41:05.136Z,13.97
2023-01-21T06:44:08.381Z,14.70
2023-01-21T06:47:11.548Z,14.47
2023-01-21T06:50:17.907Z,14.57
2023-01-21T06:53:21.091Z,16.20
2023-01-21T06:56:25.636Z,14.93
2023-01-21T06:59:28.666Z,15.40
2023-01-21T07:02:31.967Z,14.90
2023-01-21T07:05:35.003Z,15.43
2023-01-21T07:08:37.997Z,15.23
2023-01-21T07:11:42.380Z,15.10
2023-01-21T07:14:45.405Z,15.20
2023-01-21T07:17:48.351Z,16.60
2023-01-21T07:20:51.411Z,16.30
2023-01-21T07:23:55.398Z,15.87
2023-01-21T07:26:59.845Z,17.30
2023-01-21T07:30:02.861Z,16.73
2023-01-21T07:33:09.625Z,17.07
2023-01-21T07:36:12.710Z,17.37
2023-01-21T07:39:15.745Z,17.33
2023-01-21T07:42:20.131Z,18.03
2023-01-21T07:45:23.854Z,16.73
2023-01-21T07:48:26.912Z,18.10
2023-01-21T07:51:29.893Z,18.40
2023-01-21T07:54:32.994Z,17.80
2023-01-21T07:57:37.387Z,18.80
2023-01-21T08:00:40.384Z,19.33
2023-01-21T08:03:43.402Z,18.13
2023-01-21T08:06:46.411Z,18.03
2023-01-21T08:09:49.467Z,17.57
2023-01-21T08:12:53.841Z,17.07
2023-01-21T08:15:58.552Z,17.00
2023-01-21T08:19:01.773Z,17.50
2023-01-21T08:22:04.749Z,16.80
2023-01-21T08:25:08.946Z,16.97
2023-01-21T08:28:14.234Z,16.70
2023-01-21T08:31:17.318Z,15.37
2023-01-21T08:34:21.120Z,15.83
2023-01-21T08:37:24.120Z,16.83
2023-01-21T08:40:27.409Z,14.87
2023-01-21T08:43:33.059Z,15.53
2023-01-21T08:46:36.089Z,16.23
2023-01-21T08:49:39.156Z,16.87
2023-01-21T08:52:42.306Z,14.67
2023-01-21T08:55:45.450Z,15.10
2023-01-21T08:58:49.798Z,14.27
2023-01-21T09:01:52.834Z,15.80
2023-01-21T09:04:55.822Z,15.43
2023-01-21T09:07:58.890Z,14.97
2023-01-21T09:11:02.868Z,15.83
2023-01-21T09:14:07.253Z,15.87
2023-01-21T09:17:10.738Z,15.27
2023-01-21T09:20:14.320Z,14.40
2023-01-21T09:23:26.589Z,16.13
2023-01-21T09:26:29.649Z,15.53
2023-01-21T09:29:34.008Z,14.93
2023-01-21T09:32:37.219Z,14.30
2023-01-21T09:35:40.309Z,14.50
2023-01-21T09:38:44.072Z,15.27
2023-01-21T09:41:51.260Z,15.73
2023-01-21T09:44:58.833Z,15.00
2023-01-21T09:48:04.002Z,15.07
2023-01-21T09:51:14.486Z,14.87
2023-01-21T09:54:25.532Z,16.27
2023-01-21T09:57:51.225Z,15.30
2023-01-21T10:01:03.651Z,14.43
2023-01-21T10:04:29.589Z,14.67
2023-01-21T10:07:37.998Z,15.10
2023-01-21T10:10:48.136Z,15.80
2023-01-21T10:14:09.130Z,15.37
2023-01-21T10:17:17.859Z,15.40
2023-01-21T10:20:25.758Z,14.70
2023-01-21T10:23:32.868Z,15.40
2023-01-21T10:26:36.568Z,14.13
2023-01-21T10:29:41.811Z,14.70
2023-01-21T10:32:47.756Z,14.23
2023-01-21T10:36:14.136Z,15.03
2023-01-21T10:39:27.684Z,15.50
2023-01-21T10:42:45.750Z,14.07
2023-01-21T10:45:56.657Z,14.70
2023-01-21T10:49:10.520Z,14.03
2023-01-21T10:52:20.302Z,14.17
2023-01-21T10:55:29.850Z,13.27
2023-01-21T10:58:37.978Z,14.40
2023-01-21T11:01:43.846Z,13.77
2023-01-21T11:04:48.506Z,13.67
2023-01-21T11:07:52.039Z,13.53
2023-01-21T11:10:55.828Z,13.47
2023-01-21T11:13:59.247Z,13.73
2023-01-21T11:17:02.417Z,12.70
2023-01-21T11:20:19.203Z,13.27
2023-01-21T11:23:28.795Z,13.37
2023-01-21T11:26:33.519Z,12.60
2023-01-21T11:29:42.914Z,13.80
2023-01-21T11:32:45.916Z,13.70
2023-01-21T11:35:50.583Z,12.80
2023-01-21T11:39:02.921Z,13.07
2023-01-21T11:42:08.986Z,14.07
2023-01-21T11:45:27.889Z,13.17
2023-01-21T11:48:30.902Z,12.67
2023-01-21T11:51:36.157Z,13.23
2023-01-21T11:54:40.415Z,12.70
2023-01-21T11:57:47.049Z,12.57
2023-01-21T12:00:53.024Z,12.93
2023-01-21T12:03:59.768Z,13.37
2023-01-21T12:07:06.189Z,12.83
2023-01-21T12:10:24.260Z,12.17
2023-01-21T12:13:35.669Z,11.40
2023-01-21T12:16:41.513Z,11.53
2023-01-21T12:19:55.024Z,11.87
2023-01-21T12:23:19.276Z,11.20
2023-01-21T12:26:35.511Z,10.30
2023-01-21T12:29:49.932Z,10.43
2023-01-21T12:32:58.413Z,9.80
2023-01-21T12:36:06.890Z,10.03
2023-01-21T12:39:22.622Z,10.00
2023-01-21T12:42:34.049Z,8.93
2023-01-21T12:45:42.514Z,9.87
2023-01-21T12:48:49.968Z,9.13
2023-01-21T12:51:57.945Z,8.17
2023-01-21T12:55:09.021Z,8.40
2023-01-21T12:58:15.827Z,10.17
2023-01-21T13:01:36.900Z,7.17
2023-01-21T13:04:46.271Z,7.80
2023-01-21T13:07:54.472Z,7.67
2023-01-21T13:11:03.810Z,7.10
2023-01-21T13:14:23.664Z,7.10
2023-01-21T13:17:30.587Z,7.10
2023-01-21T13:20:38.731Z,7.10
2023-01-21T13:23:46.474Z,7.97
2023-01-21T13:26:59.907Z,7.20
2023-01-21T13:30:10.970Z,8.23
2023-01-21T13:33:34.689Z,7.07
2023-01-21T13:37:02.228Z,7.07
2023-01-21T13:40:22.266Z,7.33
2023-01-21T13:43:45.235Z,7.40
2023-01-21T13:46:59.556Z,6.83
2023-01-21T13:50:17.580Z,7.93
2023-01-21T13:53:36.277Z,6.87
2023-01-21T13:56:53.813Z,6.70
2023-01-21T14:00:00.958Z,7.33
2023-01-21T14:03:13.598Z,7.23
2023-01-21T14:06:24.537Z,7.33
2023-01-21T14:09:32.970Z,6.30
2023-01-21T14:13:02.749Z,6.60
2023-01-21T14:16:32.831Z,6.30
2023-01-21T14:20:06.967Z,6.57
2023-01-21T14:23:32.569Z,6.67
2023-01-21T14:27:06.747Z,6.50
2023-01-21T14:30:15.262Z,6.30
2023-01-21T14:33:23.239Z,6.50
2023-01-21T14:36:37.661Z,6.00
2023-01-21T14:39:52.413Z,5.70
2023-01-21T14:42:55.796Z,5.40
2023-01-21T14:46:00.545Z,5.13
2023-01-21T14:49:08.878Z,5.10
2023-01-21T14:52:15.623Z,4.90
2023-01-21T14:55:28.362Z,5.50
2023-01-21T14:58:31.880Z,4.50
2023-01-21T15:01:41.189Z,4.17
2023-01-21T15:04:54.162Z,4.73
2023-01-21T15:08:08.170Z,4.90
2023-01-21T15:11:21.325Z,4.73
2023-01-21T15:14:27.174Z,4.37
2023-01-21T15:18:03.837Z,4.60
2023-01-21T15:21:43.515Z,4.47
2023-01-21T15:25:22.780Z,4.23
2023-01-21T15:28:41.800Z,4.57
2023-01-21T15:31:45.905Z,4.33
2023-01-21T15:34:51.020Z,4.97
2023-01-21T15:38:02.937Z,4.40
2023-01-21T15:41:13.653Z,4.20
2023-01-21T15:44:36.461Z,4.20
2023-01-21T15:47:59.457Z,4.47
2023-01-21T15:51:07.414Z,4.53
2023-01-21T15:54:31.162Z,4.70
2023-01-21T15:57:45.996Z,4.90
2023-01-21T16:00:55.472Z,5.13
2023-01-21T16:04:26.223Z,5.30
2023-01-21T16:07:40.144Z,5.30
2023-01-21T16:10:55.501Z,5.23
2023-01-21T16:14:09.252Z,5.57
2023-01-21T16:17:20.394Z,5.73
2023-01-21T16:20:23.877Z,5.10
2023-01-21T16:23:31.791Z,5.33
2023-01-21T16:26:36.130Z,5.43
2023-01-21T16:29:39.612Z,5.33
2023-01-21T16:32:42.587Z,5.40
2023-01-21T16:35:47.688Z,5.30
2023-01-21T16:38:50.747Z,5.73
2023-01-21T16:42:03.741Z,5.70
2023-01-21T16:45:16.591Z,5.17
2023-01-21T16:48:25.670Z,5.17
2023-01-21T16:51:32.600Z,5.40
2023-01-21T16:54:35.683Z,5.60
2023-01-21T16:57:40.089Z,5.63
2023-01-21T17:00:43.118Z,5.43
2023-01-21T17:03:47.596Z,5.77
2023-01-21T17:06:51.784Z,5.73
2023-01-21T17:09:59.768Z,5.40
2023-01-21T17:13:06.945Z,5.57
2023-01-21T17:16:25.263Z,5.30
2023-01-21T17:19:33.283Z,6.23
2023-01-21T17:22:41.242Z,5.87
2023-01-21T17:25:44.824Z,5.93
2023-01-21T17:28:57.363Z,5.40
2023-01-21T17:32:01.914Z,5.40
2023-01-21T17:35:12.221Z,5.33
2023-01-21T17:38:30.073Z,5.37
2023-01-21T17:41:37.520Z,5.47
2023-01-21T17:44:46.789Z,5.87
2023-01-21T17:48:08.270Z,6.00
2023-01-21T17:51:16.143Z,5.67
2023-01-21T17:54:21.634Z,5.67
2023-01-21T17:57:34.808Z,5.63
2023-01-21T18:00:43.105Z,5.37
2023-01-21T18:03:46.790Z,5.63
2023-01-21T18:06:50.809Z,5.77
2023-01-21T18:09:54.811Z,5.50
2023-01-21T18:12:58.238Z,5.57
2023-01-21T18:16:02.635Z,5.77
2023-01-21T18:19:05.694Z,5.67
2023-01-21T18:22:08.776Z,5.87
2023-01-21T18:25:13.631Z,5.87
2023-01-21T18:28:20.288Z,6.60
2023-01-21T18:31:24.899Z,5.37
2023-01-21T18:34:29.112Z,6.10
2023-01-21T18:37:32.157Z,5.60
2023-01-21T18:40:35.244Z,6.63
2023-01-21T18:43:38.343Z,6.07
2023-01-21T18:46:43.487Z,5.53
2023-01-21T18:49:49.320Z,6.63
2023-01-21T18:52:52.470Z,5.97
2023-01-21T18:55:55.507Z,6.20
2023-01-21T18:58:58.550Z,5.73
2023-01-21T19:02:03.459Z,5.40
2023-01-21T19:05:07.123Z,5.97
2023-01-21T19:08:13.130Z,5.83
2023-01-21T19:11:16.793Z,5.70
2023-01-21T19:14:19.850Z,6.03
2023-01-21T19:17:27.850Z,5.63
2023-01-21T19:20:31.350Z,5.50
2023-01-21T19:23:34.715Z,6.20
2023-01-21T19:26:38.997Z,6.53
2023-01-21T19:29:41.984Z,6.40
2023-01-21T19:32:46.647Z,6.20
2023-01-21T19:35:50.423Z,6.10
2023-01-21T19:38:56.253Z,5.90
2023-01-21T19:42:08.031Z,5.27
2023-01-21T19:45:13.404Z,5.27
2023-01-21T19:48:20.114Z,5.87
2023-01-21T19:51:23.230Z,6.60
2023-01-21T19:54:26.250Z,5.80
2023-01-21T19:57:31.342Z,6.30
2023-01-21T20:00:36.104Z,6.17
2023-01-21T20:03:51.218Z,5.90
2023-01-21T20:07:02.550Z,5.40
2023-01-21T20:10:14.585Z,7.10
2023-01-21T20:13:18.099Z,6.27
2023-01-21T20:16:22.970Z,6.47
2023-01-21T20:19:27.431Z,6.23
2023-01-21T20:22:30.529Z,6.77
2023-01-21T20:25:37.081Z,6.50
2023-01-21T20:28:44.394Z,6.60
2023-01-21T20:31:47.696Z,6.93
2023-01-21T20:34:52.135Z,7.20
2023-01-21T20:37:56.521Z,6.50
2023-01-21T20:41:00.459Z,6.30
2023-01-21T20:44:03.655Z,6.93
2023-01-21T20:47:06.701Z,7.20
2023-01-21T20:50:22.137Z,7.23
2023-01-21T20:53:25.196Z,6.67
2023-01-21T20:56:29.738Z,6.40
2023-01-21T20:59:33.153Z,6.43
2023-01-21T21:02:36.183Z,6.20
2023-01-21T21:05:40.691Z,6.80
2023-01-21T21:08:44.400Z,6.10
2023-01-21T21:11:47.414Z,6.23
2023-01-21T21:14:50.539Z,6.40
2023-01-21T21:17:53.567Z,6.13
2023-01-21T21:20:57.921Z,6.63
2023-01-21T21:24:02.241Z,6.20
2023-01-21T21:27:05.417Z,5.93
2023-01-21T21:30:11.893Z,6.00
2023-01-21T21:33:19.335Z,5.80
2023-01-21T21:36:24.568Z,6.27
2023-01-21T21:39:27.658Z,6.13
2023-01-21T21:42:48.342Z,6.17
2023-01-21T21:46:08.939Z,7.07
2023-01-21T21:49:12.793Z,8.87
2023-01-21T21:52:17.759Z,7.73
2023-01-21T21:55:20.842Z,7.60
2023-01-21T21:58:23.858Z,6.40
2023-01-21T22:01:30.367Z,6.20
2023-01-21T22:04:33.882Z,6.40
2023-01-21T22:07:38.885Z,5.83
2023-01-21T22:10:41.841Z,6.83
2023-01-21T22:13:47.939Z,5.90
2023-01-21T22:16:53.914Z,6.07
2023-01-21T22:19:57.017Z,5.70
2023-01-21T22:23:01.448Z,6.13
2023-01-21T22:26:06.105Z,5.93
2023-01-21T22:29:09.102Z,6.03
2023-01-21T22:32:12.323Z,5.90
2023-01-21T22:35:15.497Z,5.87
2023-01-21T22:38:20.535Z,5.33
2023-01-21T22:41:24.735Z,5.57
2023-01-21T22:44:27.898Z,6.17
2023-01-21T22:47:31.998Z,5.90
2023-01-21T22:50:34.989Z,5.77
2023-01-21T22:53:40.165Z,6.07
2023-01-21T22:56:52.529Z,6.07
2023-01-21T22:59:56.117Z,6.40
2023-01-21T23:02:59.966Z,5.90
2023-01-21T23:06:07.240Z,6.70
2023-01-21T23:09:14.246Z,5.97
2023-01-21T23:12:19.742Z,6.30
2023-01-21T23:15:23.827Z,6.27
2023-01-21T23:18:28.869Z,6.17
2023-01-21T23:21:31.939Z,6.47
2023-01-21T23:24:36.622Z,6.77
2023-01-21T23:27:39.940Z,6.00
2023-01-21T23:30:43.341Z,5.47
2023-01-21T23:33:50.334Z,6.27
2023-01-21T23:36:53.327Z,6.87
2023-01-21T23:39:57.871Z,6.57
2023-01-21T23:43:00.871Z,6.10
2023-01-21T23:46:06.561Z,5.70
2023-01-21T23:49:09.583Z,5.53
2023-01-21T23:52:13.237Z,5.60
2023-01-21T23:55:17.900Z,6.30
2023-01-21T23:58:20.913Z,6.10
